Time;durP1;ratioP1;P1;durP2;ratioP2;P2;SDS_P1;SDS_P2;PMS_P1;PMS_P2;Temp;Humidity;BMP_temperature;BMP_pressure;BME280_temperature;BME280_humidity;BME280_pressure;Samples;Min_cycle;Max_cycle;Signal;HPM_P1;HPM_P2
2022/09/17 17:12:58;;;;;;;73.45;13.05;;;;;;;23.04;88.46;99310.97;5102256;27;20413;-84
2022/09/17 17:15:24;;;;;;;38.28;9.00;;;;;;;22.86;88.08;99318.47;5104151;28;20043;-81
2022/09/17 17:17:49;;;;;;;39.25;9.98;;;;;;;22.68;87.65;99303.78;5110371;28;20035;-83
2022/09/17 17:20:15;;;;;;;126.47;15.60;;;;;;;22.78;87.79;99314.97;5112390;28;20035;-84
2022/09/17 17:22:42;;;;;;;41.38;10.35;;;;;;;22.73;87.39;99306.63;5111492;28;20039;-85
2022/09/17 17:25:09;;;;;;;118.95;14.52;;;;;;;22.30;87.27;99259.44;5113271;28;20031;-83
2022/09/17 17:27:35;;;;;;;72.63;12.20;;;;;;;22.65;88.20;99330.81;5113861;28;20034;-85
2022/09/17 17:30:05;;;;;;;113.35;17.65;;;;;;;22.37;88.89;99287.56;5124595;28;20023;-84
2022/09/17 17:32:31;;;;;;;195.80;22.30;;;;;;;22.52;89.73;99337.28;5126356;28;20024;-85
2022/09/17 17:34:57;;;;;;;183.48;25.73;;;;;;;22.43;91.33;99340.59;5128529;28;20027;-83
2022/09/17 17:37:22;;;;;;;154.45;22.38;;;;;;;22.33;91.45;99321.97;5115701;28;20195;-85
2022/09/17 17:39:48;;;;;;;119.35;18.20;;;;;;;22.37;91.46;99323.19;5114779;28;20034;-84
2022/09/17 17:42:13;;;;;;;78.32;16.92;;;;;;;22.40;91.13;99336.41;5110273;28;20448;-85
2022/09/17 17:44:39;;;;;;;58.95;12.55;;;;;;;22.21;91.03;99313.72;5109773;28;20036;-84
2022/09/17 17:47:05;;;;;;;60.30;14.93;;;;;;;22.26;91.39;99318.50;5110009;28;20160;-81
2022/09/17 17:49:31;;;;;;;108.75;19.55;;;;;;;22.16;91.72;99302.63;5109294;28;20028;-80
2022/09/17 17:51:57;;;;;;;92.07;16.92;;;;;;;22.38;91.42;99340.47;5108959;28;20052;-81
2022/09/17 17:54:22;;;;;;;169.85;21.75;;;;;;;22.21;90.57;99321.09;5108743;28;20829;-80
2022/09/17 17:56:48;;;;;;;340.65;38.38;;;;;;;22.21;90.65;99337.53;5107717;28;20051;-81
2022/09/17 17:59:14;;;;;;;74.30;16.08;;;;;;;21.94;90.78;99300.59;5109353;28;20043;-79
2022/09/17 18:01:39;;;;;;;45.75;14.85;;;;;;;21.94;90.73;99308.81;5108742;28;20054;-78
2022/09/17 18:04:08;;;;;;;53.45;13.80;;;;;;;22.24;90.97;99350.75;5118605;28;20023;-78
2022/09/17 18:06:34;;;;;;;96.13;17.80;;;;;;;22.01;90.77;99306.84;5128300;27;20035;-77
2022/09/17 18:09:00;;;;;;;188.68;25.08;;;;;;;22.10;89.62;99320.00;5108926;28;20114;-77
2022/09/17 18:11:27;;;;;;;114.95;18.10;;;;;;;22.31;88.37;99342.44;5128887;27;20088;-78
2022/09/17 18:13:55;;;;;;;87.72;21.15;;;;;;;22.28;87.97;99349.25;5128582;27;20051;-78
2022/09/17 18:16:22;;;;;;;100.22;18.13;;;;;;;21.88;88.10;99263.16;5128126;27;20058;-86
2022/09/17 18:18:48;;;;;;;121.03;19.90;;;;;;;22.26;87.68;99337.69;5108638;27;20134;-80
2022/09/17 18:21:19;;;;;;;56.78;18.02;;;;;;;22.23;88.86;99354.59;5106162;28;20122;-80
2022/09/17 18:23:45;;;;;;;91.67;18.40;;;;;;;22.14;89.52;99359.50;5077358;28;20032;-78
2022/09/17 18:26:15;;;;;;;42.78;14.38;;;;;;;22.19;89.35;99386.22;5089300;28;20517;-77
2022/09/17 18:28:41;;;;;;;100.45;17.52;;;;;;;22.11;88.86;99375.56;5092153;28;20024;-76
2022/09/17 18:31:16;;;;;;;45.38;14.63;;;;;;;22.28;88.22;99412.25;5092200;28;20517;-79
2022/09/17 18:33:42;;;;;;;70.70;14.88;;;;;;;22.15;87.26;99385.84;5090496;28;20031;-77
2022/09/17 18:36:09;;;;;;;209.07;20.17;;;;;;;22.23;87.52;99395.66;5092775;28;20028;-80
2022/09/17 18:38:38;;;;;;;58.60;13.02;;;;;;;22.20;89.32;99404.31;5091535;28;20116;-77
2022/09/17 18:41:10;;;;;;;52.33;12.63;;;;;;;22.31;89.75;99447.41;5093181;28;20024;-77
2022/09/17 18:43:36;;;;;;;34.13;11.43;;;;;;;22.32;89.48;99467.41;5093366;28;20032;-80
2022/09/17 18:46:02;;;;;;;72.25;14.50;;;;;;;22.19;89.86;99473.88;5093377;28;20107;-79
2022/09/17 18:48:29;;;;;;;27.83;9.35;;;;;;;22.25;89.57;99530.47;5093575;28;20099;-77
2022/09/17 18:50:55;;;;;;;45.88;20.00;;;;;;;22.28;87.53;99666.16;5092478;28;20081;-79
2022/09/17 18:53:21;;;;;;;49.20;23.40;;;;;;;22.01;88.87;99684.72;5092663;28;20051;-81
2022/09/17 18:55:46;;;;;;;40.45;18.63;;;;;;;21.67;90.96;99740.69;5095857;28;20425;-84
2022/09/17 18:58:11;;;;;;;48.63;18.63;;;;;;;21.54;93.54;99793.56;5100257;28;20462;-86
2022/09/17 19:00:39;;;;;;;56.72;25.80;;;;;;;21.34;97.39;99820.16;5096163;28;20031;-79
2022/09/17 19:03:05;;;;;;;71.13;33.65;;;;;;;21.11;100.00;99778.75;5098411;28;20064;-77
2022/09/17 19:05:30;;;;;;;79.20;35.38;;;;;;;20.89;100.00;99728.06;5101754;28;20020;-79
2022/09/17 19:07:59;;;;;;;67.43;31.88;;;;;;;21.01;100.00;99675.25;5102893;28;20023;-79
2022/09/17 19:10:25;;;;;;;52.63;26.88;;;;;;;21.02;100.00;99626.88;5092986;28;20016;-80
2022/09/17 19:12:54;;;;;;;42.55;18.80;;;;;;;21.03;100.00;99603.97;5094759;28;20052;-82
2022/09/17 19:15:22;;;;;;;45.45;17.55;;;;;;;20.71;100.00;99553.84;5094240;28;20024;-78
2022/09/17 19:17:52;;;;;;;31.65;14.85;;;;;;;20.74;100.00;99522.50;5093148;28;20545;-81
2022/09/17 19:20:19;;;;;;;34.78;14.50;;;;;;;20.74;100.00;99459.66;5091380;28;20023;-79
2022/09/17 19:22:45;;;;;;;26.67;13.10;;;;;;;20.92;100.00;99462.47;5092668;28;20119;-77
2022/09/17 19:25:10;;;;;;;37.20;14.98;;;;;;;20.76;100.00;99422.03;5092130;28;20024;-76
2022/09/17 19:27:36;;;;;;;22.25;12.18;;;;;;;20.77;100.00;99412.75;5092859;28;20028;-79
2022/09/17 19:30:02;;;;;;;37.75;13.48;;;;;;;20.52;100.00;99361.63;5093603;28;20024;-77
2022/09/17 19:32:28;;;;;;;22.08;11.40;;;;;;;21.01;100.00;99470.22;5108038;28;20054;-79
2022/09/17 19:34:54;;;;;;;22.48;13.32;;;;;;;20.89;100.00;99438.31;5091798;28;20024;-77
2022/09/17 19:37:19;;;;;;;26.45;12.73;;;;;;;21.04;100.00;99438.84;5091905;28;20034;-81
2022/09/17 19:39:45;;;;;;;24.15;13.80;;;;;;;21.11;100.00;99426.00;5092889;28;20035;-80
2022/09/17 19:42:11;;;;;;;28.60;14.25;;;;;;;21.15;100.00;99419.88;5092532;28;20024;-77
2022/09/17 19:44:37;;;;;;;34.35;13.52;;;;;;;21.13;100.00;99412.94;5092174;28;20024;-82
2022/09/17 19:47:02;;;;;;;41.15;14.23;;;;;;;21.16;100.00;99396.09;5093356;28;20497;-77
2022/09/17 19:49:28;;;;;;;32.65;13.80;;;;;;;20.95;100.00;99355.44;5099168;28;20028;-78
2022/09/17 19:51:54;;;;;;;24.08;13.27;;;;;;;21.05;100.00;99374.91;5094543;28;20028;-77
2022/09/17 19:54:20;;;;;;;21.48;12.25;;;;;;;21.09;100.00;99389.88;5090548;28;20704;-79
2022/09/17 19:56:46;;;;;;;31.50;12.05;;;;;;;20.97;100.00;99370.59;5091199;28;20092;-79
2022/09/17 19:59:12;;;;;;;27.60;11.73;;;;;;;21.12;100.00;99400.34;5092345;28;20391;-78
2022/09/17 20:01:37;;;;;;;19.38;9.32;;;;;;;20.98;100.00;99371.41;5092186;28;20038;-79
2022/09/17 20:04:03;;;;;;;23.80;9.95;;;;;;;21.06;100.00;99368.41;5091764;28;20036;-82
2022/09/17 20:06:34;;;;;;;18.33;8.68;;;;;;;21.01;100.00;99354.53;5092071;28;20047;-79
2022/09/17 20:09:00;;;;;;;19.77;9.48;;;;;;;21.16;100.00;99379.69;5095104;28;20028;-82
2022/09/17 20:11:26;;;;;;;15.38;8.23;;;;;;;21.29;100.00;99390.53;5093810;28;20101;-77
2022/09/17 20:14:05;;;;;;;23.35;9.77;;;;;;;21.19;100.00;99365.59;5091868;28;20040;-79
2022/09/17 20:16:32;;;;;;;15.50;8.23;;;;;;;21.46;100.00;99407.22;5090888;28;20059;-80
2022/09/17 20:18:57;;;;;;;16.80;9.90;;;;;;;21.23;100.00;99363.22;5091837;28;20045;-81
2022/09/17 20:21:27;;;;;;;13.40;8.57;;;;;;;21.42;100.00;99401.34;5091631;28;20032;-80
2022/09/17 20:23:55;;;;;;;20.10;8.68;;;;;;;21.40;100.00;99422.63;5092909;28;20434;-79
2022/09/17 20:26:22;;;;;;;18.45;8.98;;;;;;;20.89;100.00;99339.94;5093685;28;20028;-79
2022/09/17 20:28:49;;;;;;;15.30;7.70;;;;;;;21.41;100.00;99432.50;5088653;28;20028;-81
2022/09/17 20:31:15;;;;;;;15.35;8.38;;;;;;;21.41;100.00;99454.38;5093870;28;20121;-81
2022/09/17 20:33:41;;;;;;;15.02;8.30;;;;;;;21.35;100.00;99451.69;5096687;28;20513;-82
2022/09/17 20:36:11;;;;;;;18.83;9.05;;;;;;;21.33;100.00;99446.47;5096189;28;20032;-78
2022/09/17 20:38:37;;;;;;;15.05;9.75;;;;;;;21.25;100.00;99454.94;5095686;28;20413;-79
2022/09/17 20:41:04;;;;;;;18.77;9.40;;;;;;;21.23;100.00;99473.47;5092322;28;20050;-76
2022/09/17 20:43:38;;;;;;;17.45;8.82;;;;;;;20.99;100.00;99450.47;5091250;28;20133;-79
2022/09/17 20:46:05;;;;;;;24.00;8.73;;;;;;;20.88;100.00;99466.72;5091437;28;20024;-78
2022/09/17 20:48:32;;;;;;;18.77;8.23;;;;;;;21.35;100.00;99553.75;5091185;28;20462;-78
2022/09/17 20:50:59;;;;;;;18.70;8.55;;;;;;;21.22;100.00;99547.53;5091116;28;20039;-79
2022/09/17 20:53:24;;;;;;;21.33;8.75;;;;;;;21.29;100.00;99583.88;5095598;28;20026;-80
2022/09/17 20:55:57;;;;;;;22.98;9.18;;;;;;;21.11;100.00;99581.88;5100487;28;20035;-79
2022/09/17 20:58:28;;;;;;;17.35;9.25;;;;;;;21.28;100.00;99623.22;5090628;28;20020;-78
2022/09/17 21:00:53;;;;;;;27.23;9.57;;;;;;;21.01;100.00;99540.44;5090983;28;20028;-78
2022/09/17 21:03:21;;;;;;;22.38;9.63;;;;;;;21.32;100.00;99584.28;5090205;28;20426;-80
2022/09/17 21:05:46;;;;;;;26.15;8.75;;;;;;;21.32;100.00;99565.13;5088778;28;20036;-80
2022/09/17 21:08:12;;;;;;;24.67;9.15;;;;;;;21.12;100.00;99507.84;5085718;28;20032;-80
2022/09/17 21:10:42;;;;;;;16.88;9.35;;;;;;;21.15;100.00;99492.88;5089774;28;20529;-79
2022/09/17 21:13:07;;;;;;;20.30;8.05;;;;;;;20.86;100.00;99450.53;5089112;28;20446;-83
2022/09/17 21:15:33;;;;;;;13.32;6.43;;;;;;;20.82;100.00;99432.94;5090073;28;20078;-78
2022/09/17 21:17:58;;;;;;;13.75;5.93;;;;;;;20.62;100.00;99372.91;5089594;28;20016;-79
2022/09/17 21:20:24;;;;;;;12.18;4.72;;;;;;;20.74;100.00;99342.16;5089173;28;20160;-78
2022/09/17 21:22:49;;;;;;;13.30;4.35;;;;;;;20.70;100.00;99298.06;5090399;28;20119;-78
2022/09/17 21:25:15;;;;;;;8.20;2.67;;;;;;;20.62;100.00;99339.28;5089285;28;20077;-78
2022/09/17 21:27:40;;;;;;;6.75;2.80;;;;;;;20.58;100.00;99317.03;5089056;28;20024;-78
2022/09/17 21:30:08;;;;;;;8.65;2.65;;;;;;;20.48;100.00;99283.09;5089833;28;20039;-82
2022/09/17 21:32:35;;;;;;;10.75;3.13;;;;;;;20.45;100.00;99253.50;5090609;28;20111;-80
2022/09/17 21:35:00;;;;;;;10.43;3.15;;;;;;;20.52;100.00;99255.09;5090203;28;20546;-78
2022/09/17 21:37:26;;;;;;;8.10;3.13;;;;;;;20.41;100.00;99214.88;5089684;28;20157;-78
2022/09/17 21:39:51;;;;;;;9.75;3.38;;;;;;;20.53;100.00;99232.19;5090380;28;20137;-77
2022/09/17 21:42:17;;;;;;;7.22;3.22;;;;;;;20.59;100.00;99228.56;5090930;28;20032;-77
2022/09/17 21:44:42;;;;;;;13.98;2.60;;;;;;;20.43;100.00;99217.34;5093663;28;20036;-81
2022/09/17 21:47:08;;;;;;;6.78;3.45;;;;;;;20.30;100.00;99220.22;5092171;28;20028;-80
2022/09/17 21:49:33;;;;;;;5.55;2.88;;;;;;;20.28;100.00;99223.16;5091872;28;20101;-83
2022/09/17 21:51:59;;;;;;;7.13;4.15;;;;;;;20.28;100.00;99261.38;5098945;28;20028;-80
2022/09/17 21:54:24;;;;;;;6.90;3.80;;;;;;;20.42;100.00;99282.09;5096397;28;20056;-78
2022/09/17 21:56:50;;;;;;;9.73;4.53;;;;;;;20.35;100.00;99272.25;5088826;28;20036;-78
2022/09/17 21:59:16;;;;;;;14.82;5.38;;;;;;;20.27;100.00;99229.69;5092664;28;20565;-77
2022/09/17 22:01:45;;;;;;;15.43;5.28;;;;;;;20.39;100.00;99257.94;5094214;28;20032;-78
2022/09/17 22:04:13;;;;;;;16.15;6.25;;;;;;;20.55;100.00;99256.53;5093842;28;20024;-78
2022/09/17 22:06:40;;;;;;;21.05;5.78;;;;;;;20.56;100.00;99280.94;5095105;28;20028;-77
2022/09/17 22:09:07;;;;;;;15.27;5.53;;;;;;;20.61;100.00;99292.00;5097498;28;20031;-79
2022/09/17 22:11:35;;;;;;;11.32;5.43;;;;;;;20.68;100.00;99285.66;5096429;28;20046;-77
2022/09/17 22:14:10;;;;;;;14.13;5.13;;;;;;;20.69;100.00;99270.94;5094336;28;20028;-77
2022/09/17 22:16:38;;;;;;;15.60;5.47;;;;;;;20.81;100.00;99278.19;5094117;28;20031;-77
2022/09/17 22:19:05;;;;;;;9.50;5.78;;;;;;;20.82;100.00;99268.13;5093312;28;20040;-77
2022/09/17 22:21:33;;;;;;;9.93;5.47;;;;;;;20.83;100.00;99265.13;5093493;28;20528;-76
2022/09/17 22:24:00;;;;;;;10.45;6.00;;;;;;;20.89;100.00;99279.81;5086657;28;20058;-77
2022/09/17 22:26:28;;;;;;;9.60;5.00;;;;;;;20.83;100.00;99280.69;5113531;28;20030;-77
2022/09/17 22:28:54;;;;;;;11.80;4.80;;;;;;;20.83;100.00;99291.63;5113693;28;20031;-75
2022/09/17 22:31:21;;;;;;;16.65;5.45;;;;;;;20.83;100.00;99286.16;5114714;28;20371;-76
2022/09/17 22:33:48;;;;;;;15.23;4.43;;;;;;;20.82;100.00;99295.44;5113051;28;20099;-76
2022/09/17 22:36:22;;;;;;;8.50;3.95;;;;;;;20.81;100.00;99271.91;5111553;28;20458;-77
2022/09/17 22:38:50;;;;;;;6.60;3.92;;;;;;;20.83;100.00;99276.06;5113568;28;20023;-76
2022/09/17 22:41:21;;;;;;;11.27;4.95;;;;;;;20.83;100.00;99292.47;5112156;28;20034;-76
2022/09/17 22:43:51;;;;;;;9.23;4.33;;;;;;;20.86;100.00;99299.38;5092851;28;20051;-76
2022/09/17 22:46:18;;;;;;;14.45;4.78;;;;;;;20.85;100.00;99301.31;5091386;28;20024;-75
2022/09/17 22:48:44;;;;;;;11.25;4.38;;;;;;;20.85;100.00;99300.47;5092556;28;20024;-75
2022/09/17 22:51:10;;;;;;;18.88;4.13;;;;;;;20.94;100.00;99277.25;5092351;28;20059;-75
2022/09/17 22:53:36;;;;;;;7.43;3.58;;;;;;;20.88;100.00;99280.88;5092534;28;20092;-76
2022/09/17 22:56:09;;;;;;;11.32;4.45;;;;;;;20.79;100.00;99263.09;5092608;28;20545;-76
2022/09/17 22:58:35;;;;;;;10.73;4.25;;;;;;;20.83;100.00;99248.75;5092526;28;20020;-75
2022/09/17 23:01:14;;;;;;;11.40;4.47;;;;;;;20.79;100.00;99242.06;5092086;28;20105;-75
2022/09/17 23:03:40;;;;;;;11.23;4.75;;;;;;;20.77;100.00;99254.25;5092076;28;20027;-76
2022/09/17 23:06:08;;;;;;;10.88;4.43;;;;;;;20.72;100.00;99286.91;5093294;28;20032;-76
2022/09/17 23:08:35;;;;;;;5.75;3.95;;;;;;;20.74;100.00;99282.03;5092206;28;20024;-77
2022/09/17 23:11:01;;;;;;;8.48;3.63;;;;;;;20.80;100.00;99297.53;5092333;28;20044;-76
2022/09/17 23:13:28;;;;;;;10.23;4.43;;;;;;;20.82;100.00;99295.44;5094649;28;20028;-75
2022/09/17 23:16:05;;;;;;;8.15;4.28;;;;;;;20.79;100.00;99306.81;5093758;28;20465;-75
2022/09/17 23:18:32;;;;;;;9.30;4.28;;;;;;;20.79;100.00;99293.16;5094034;28;20028;-75
2022/09/17 23:21:03;;;;;;;10.27;4.13;;;;;;;20.81;100.00;99293.75;5095170;28;20127;-77
2022/09/17 23:23:29;;;;;;;16.43;5.63;;;;;;;20.79;100.00;99271.28;5095953;28;20402;-75
2022/09/17 23:26:00;;;;;;;17.98;3.72;;;;;;;20.81;100.00;99275.47;5097056;28;20032;-76
2022/09/17 23:28:26;;;;;;;7.53;4.17;;;;;;;20.79;100.00;99263.09;5095857;28;20466;-75
2022/09/17 23:30:51;;;;;;;8.32;4.50;;;;;;;20.84;100.00;99250.44;5094249;28;20119;-75
2022/09/17 23:33:17;;;;;;;9.10;4.55;;;;;;;20.68;100.00;99229.13;5093381;28;20032;-77
2022/09/17 23:35:42;;;;;;;20.38;4.07;;;;;;;20.83;100.00;99254.22;5093363;28;20028;-75
2022/09/17 23:38:07;;;;;;;8.98;3.53;;;;;;;20.77;100.00;99265.19;5093078;28;20455;-77
2022/09/17 23:40:33;;;;;;;5.15;3.20;;;;;;;20.73;100.00;99258.53;5093218;28;20432;-75
2022/09/17 23:42:58;;;;;;;8.77;3.22;;;;;;;20.72;100.00;99260.41;5092598;28;20745;-76
2022/09/17 23:45:24;;;;;;;12.48;3.90;;;;;;;20.61;100.00;99234.63;5092597;28;20364;-75
2022/09/17 23:47:49;;;;;;;7.43;3.00;;;;;;;20.72;100.00;99254.09;5092072;28;20020;-76
2022/09/17 23:50:15;;;;;;;6.13;3.20;;;;;;;20.66;100.00;99238.59;5092115;28;20044;-77
2022/09/17 23:52:40;;;;;;;8.30;3.05;;;;;;;20.65;100.00;99235.03;5092921;28;20020;-75
2022/09/17 23:55:07;;;;;;;10.02;3.42;;;;;;;20.58;100.00;99224.16;5093465;28;20031;-78
2022/09/17 23:57:33;;;;;;;6.32;2.67;;;;;;;20.55;100.00;99231.97;5093701;28;20032;-77
2022/09/17 23:59:59;;;;;;;12.15;2.72;;;;;;;20.63;100.00;99248.94;5093281;28;20115;-76
